createdAt,value
2019-03-11T00:01:06.419Z,1001.91
2019-03-11T00:02:16.360Z,1001.82
2019-03-11T00:03:26.325Z,1001.9
2019-03-11T00:04:36.314Z,1001.97
2019-03-11T00:05:46.261Z,1001.95
2019-03-11T00:06:56.204Z,1001.99
2019-03-11T00:08:06.149Z,1002.06
2019-03-11T00:09:16.094Z,1002.05
2019-03-11T00:10:26.030Z,1002.09
2019-03-11T00:11:35.975Z,1002.08
2019-03-11T00:12:45.674Z,1002.06
2019-03-11T00:13:55.123Z,1002.06
2019-03-11T00:15:05.064Z,1002.06
2019-03-11T00:16:15.001Z,1002.09
2019-03-11T00:17:24.685Z,1001.99
2019-03-11T00:18:34.637Z,1002.15
2019-03-11T00:19:44.575Z,1002.09
2019-03-11T00:20:54.252Z,1002.17
2019-03-11T00:22:03.942Z,1002.19
2019-03-11T00:23:13.883Z,1002.21
2019-03-11T00:24:23.577Z,1002.29
2019-03-11T00:25:33.507Z,1002.21
2019-03-11T00:26:43.187Z,1002.28
2019-03-11T00:27:52.914Z,1002.24
2019-03-11T00:29:02.626Z,1002.34
2019-03-11T00:30:12.318Z,1002.34
2019-03-11T00:31:22.264Z,1002.37
2019-03-11T00:32:31.970Z,1002.29
2019-03-11T00:33:41.659Z,1002.38
2019-03-11T00:34:51.599Z,1002.3
2019-03-11T00:36:01.545Z,1002.32
2019-03-11T00:37:11.230Z,1002.4
2019-03-11T00:38:20.913Z,1002.43
2019-03-11T00:39:30.844Z,1002.43
2019-03-11T00:40:40.532Z,1002.48
2019-03-11T00:41:50.470Z,1002.5
2019-03-11T00:43:00.430Z,1002.48
2019-03-11T00:44:10.374Z,1002.46
2019-03-11T00:45:19.809Z,1002.49
2019-03-11T00:46:32.043Z,1002.59
2019-03-11T00:47:41.702Z,1002.55
2019-03-11T00:49:02.448Z,1002.7
2019-03-11T00:50:12.134Z,1002.51
2019-03-11T00:51:21.835Z,1002.57
2019-03-11T00:52:31.625Z,1002.69
2019-03-11T00:53:42.119Z,1002.66
2019-03-11T00:54:51.592Z,1002.7
2019-03-11T00:56:01.276Z,1002.73
2019-03-11T00:57:11.227Z,1002.77
2019-03-11T00:58:21.343Z,1002.64
2019-03-11T00:59:31.124Z,1002.78
2019-03-11T01:00:41.059Z,1002.87
2019-03-11T01:01:51.012Z,1002.7
2019-03-11T01:03:00.957Z,1002.77
2019-03-11T01:04:10.646Z,1002.81
2019-03-11T01:05:20.067Z,1002.82
2019-03-11T01:06:29.765Z,1002.81
2019-03-11T01:07:39.723Z,1002.83
2019-03-11T01:08:49.449Z,1002.87
2019-03-11T01:09:59.268Z,1002.84
2019-03-11T01:11:08.957Z,1002.8
2019-03-11T01:12:18.644Z,1002.97
2019-03-11T01:13:28.339Z,1002.98
2019-03-11T01:14:38.272Z,1002.84
2019-03-11T01:15:48.214Z,1002.87
2019-03-11T01:16:57.929Z,1002.92
2019-03-11T01:18:07.953Z,1002.96
2019-03-11T01:19:17.948Z,1002.92
2019-03-11T01:20:27.895Z,1002.97
2019-03-11T01:21:37.591Z,1002.88
2019-03-11T01:22:47.293Z,1002.96
2019-03-11T01:23:56.994Z,1002.83
2019-03-11T01:25:06.941Z,1002.94
2019-03-11T01:26:16.879Z,1002.89
2019-03-11T01:27:26.834Z,1002.81
2019-03-11T01:28:36.773Z,1002.95
2019-03-11T01:29:46.462Z,1002.85
2019-03-11T01:30:56.596Z,1002.91
2019-03-11T01:32:06.278Z,1002.9
2019-03-11T01:33:15.965Z,1002.88
2019-03-11T01:34:25.917Z,1002.94
2019-03-11T01:35:35.875Z,1002.9
2019-03-11T01:36:45.811Z,1002.88
2019-03-11T01:37:55.758Z,1002.82
2019-03-11T01:39:05.760Z,1002.86
2019-03-11T01:40:15.697Z,1002.76
2019-03-11T01:41:25.639Z,1002.79
2019-03-11T01:42:35.318Z,1002.89
2019-03-11T01:43:45.249Z,1002.73
2019-03-11T01:44:55.190Z,1002.87
2019-03-11T01:46:04.885Z,1002.9
2019-03-11T01:47:14.825Z,1002.76
2019-03-11T01:48:24.513Z,1002.83
2019-03-11T01:49:34.203Z,1002.83
2019-03-11T01:50:44.146Z,1002.82
2019-03-11T01:51:54.090Z,1002.84
2019-03-11T01:53:03.280Z,1002.84
2019-03-11T01:54:13.199Z,1002.89
2019-03-11T01:55:23.135Z,1002.87
2019-03-11T01:56:32.825Z,1002.85
2019-03-11T01:57:42.516Z,1002.85
2019-03-11T01:58:52.456Z,1002.82
2019-03-11T02:00:02.388Z,1002.84
2019-03-11T02:01:12.337Z,1002.74
2019-03-11T02:02:22.037Z,1003.09
2019-03-11T02:03:32.009Z,1003.13
2019-03-11T02:04:41.946Z,1002.93
2019-03-11T02:05:51.698Z,1002.88
2019-03-11T02:07:01.638Z,1002.79
2019-03-11T02:08:11.092Z,1002.84
2019-03-11T02:09:20.774Z,1002.79
2019-03-11T02:10:30.711Z,1002.8
2019-03-11T02:11:40.393Z,1002.86
2019-03-11T02:12:50.342Z,1002.83
2019-03-11T02:14:00.092Z,1002.8
2019-03-11T02:15:10.044Z,1002.74
2019-03-11T02:16:19.979Z,1002.82
2019-03-11T02:17:29.438Z,1002.77
2019-03-11T02:18:39.196Z,1002.82
2019-03-11T02:19:48.876Z,1002.81
2019-03-11T02:20:58.804Z,1002.88
2019-03-11T02:22:08.734Z,1002.87
2019-03-11T02:23:18.425Z,1002.88
2019-03-11T02:24:28.112Z,1002.86
2019-03-11T02:25:37.790Z,1002.83
2019-03-11T02:26:47.731Z,1002.97
2019-03-11T02:27:57.667Z,1002.94
2019-03-11T02:29:07.343Z,1002.85
2019-03-11T02:30:17.061Z,1002.81
2019-03-11T02:31:27.014Z,1002.88
2019-03-11T02:32:36.742Z,1002.9
2019-03-11T02:33:46.723Z,1002.84
2019-03-11T02:34:56.707Z,1003.08
2019-03-11T02:36:06.686Z,1002.89
2019-03-11T02:37:16.663Z,1002.93
2019-03-11T02:38:26.381Z,1002.94
2019-03-11T02:39:36.322Z,1002.96
2019-03-11T02:40:46.311Z,1002.96
2019-03-11T02:41:56.010Z,1002.88
2019-03-11T02:43:05.466Z,1002.94
2019-03-11T02:44:15.403Z,1002.89
2019-03-11T02:45:25.398Z,1002.99
2019-03-11T02:46:35.336Z,1002.99
2019-03-11T02:47:45.351Z,1003
2019-03-11T02:48:55.327Z,1002.89
2019-03-11T02:50:05.321Z,1002.89
2019-03-11T02:51:15.039Z,1002.95
2019-03-11T02:52:24.752Z,1002.96
2019-03-11T02:53:34.722Z,1002.9
2019-03-11T02:54:44.454Z,1002.94
2019-03-11T02:55:54.421Z,1002.98
2019-03-11T02:57:04.461Z,1002.86
2019-03-11T02:58:14.421Z,1002.85
2019-03-11T02:59:24.367Z,1002.84
2019-03-11T03:00:35.429Z,1002.92
2019-03-11T03:01:45.121Z,1002.78
2019-03-11T03:02:55.074Z,1002.8
2019-03-11T03:04:05.042Z,1002.79
2019-03-11T03:05:14.779Z,1002.77
2019-03-11T03:06:24.795Z,1002.78
2019-03-11T03:07:34.749Z,1002.85
2019-03-11T03:08:44.486Z,1002.74
2019-03-11T03:09:54.181Z,1002.79
2019-03-11T03:11:03.665Z,1002.77
2019-03-11T03:12:13.134Z,1002.84
2019-03-11T03:13:22.581Z,1002.78
2019-03-11T03:14:32.279Z,1002.76
2019-03-11T03:15:41.993Z,1002.81
2019-03-11T03:16:51.468Z,1002.77
2019-03-11T03:18:00.921Z,1002.75
2019-03-11T03:19:10.902Z,1002.75
2019-03-11T03:20:20.852Z,1002.82
2019-03-11T03:21:30.554Z,1002.74
2019-03-11T03:22:40.253Z,1002.81
2019-03-11T03:23:49.754Z,1002.84
2019-03-11T03:24:59.471Z,1002.81
2019-03-11T03:26:09.441Z,1002.75
2019-03-11T03:27:18.906Z,1002.77
2019-03-11T03:28:28.611Z,1002.84
2019-03-11T03:29:38.564Z,1002.86
2019-03-11T03:30:48.509Z,1002.77
2019-03-11T03:31:58.493Z,1002.79
2019-03-11T03:33:08.273Z,1002.82
2019-03-11T03:34:18.075Z,1002.81
2019-03-11T03:35:28.062Z,1002.74
2019-03-11T03:36:38.009Z,1002.8
2019-03-11T03:37:47.978Z,1002.79
2019-03-11T03:38:57.916Z,1002.76
2019-03-11T03:40:07.632Z,1002.89
2019-03-11T03:41:17.353Z,1002.75
2019-03-11T03:42:27.143Z,1002.75
2019-03-11T03:43:36.992Z,1002.79
2019-03-11T03:44:46.437Z,1002.76
2019-03-11T03:45:56.386Z,1002.72
2019-03-11T03:47:20.777Z,1002.72
2019-03-11T03:48:30.873Z,1002.67
2019-03-11T03:49:41.494Z,1002.84
2019-03-11T03:50:51.503Z,1002.68
2019-03-11T03:52:01.456Z,1002.67
2019-03-11T03:53:11.172Z,1002.68
2019-03-11T03:54:20.676Z,1002.63
2019-03-11T03:55:30.377Z,1002.64
2019-03-11T03:56:40.349Z,1002.66
2019-03-11T03:57:54.179Z,1002.66
2019-03-11T03:59:04.141Z,1002.62
2019-03-11T04:00:14.100Z,1002.63
2019-03-11T04:01:23.788Z,1002.64
2019-03-11T04:02:33.822Z,1002.6
2019-03-11T04:03:43.523Z,1002.7
2019-03-11T04:04:52.983Z,1002.62
2019-03-11T04:06:03.314Z,1002.62
2019-03-11T04:07:13.324Z,1002.63
2019-03-11T04:08:23.287Z,1002.63
2019-03-11T04:09:33.241Z,1002.64
2019-03-11T04:10:43.204Z,1002.57
2019-03-11T04:11:53.161Z,1002.67
2019-03-11T04:13:03.147Z,1002.65
2019-03-11T04:14:12.848Z,1002.71
2019-03-11T04:15:22.552Z,1002.6
2019-03-11T04:16:32.018Z,1002.57
2019-03-11T04:17:41.970Z,1002.55
2019-03-11T04:18:51.957Z,1002.55
2019-03-11T04:20:01.938Z,1002.58
2019-03-11T04:21:11.898Z,1002.53
2019-03-11T04:22:21.600Z,1002.6
2019-03-11T04:23:31.544Z,1002.52
2019-03-11T04:24:41.254Z,1002.55
2019-03-11T04:25:50.978Z,1002.51
2019-03-11T04:27:00.684Z,1002.53
2019-03-11T04:28:10.379Z,1002.55
2019-03-11T04:29:19.829Z,1002.49
2019-03-11T04:30:29.779Z,1002.54
2019-03-11T04:31:39.723Z,1002.53
2019-03-11T04:32:49.696Z,1002.6
2019-03-11T04:33:59.639Z,1002.51
2019-03-11T04:35:09.342Z,1002.54
2019-03-11T04:36:19.121Z,1002.58
2019-03-11T04:37:29.076Z,1002.61
2019-03-11T04:38:39.016Z,1002.58
2019-03-11T04:39:48.845Z,1002.6
2019-03-11T04:40:58.843Z,1002.53
2019-03-11T04:42:08.863Z,1002.5
2019-03-11T04:43:18.635Z,1002.53
2019-03-11T04:44:28.579Z,1002.52
2019-03-11T04:45:38.269Z,1002.59
2019-03-11T04:46:47.964Z,1002.5
2019-03-11T04:47:57.400Z,1002.51
2019-03-11T04:49:07.108Z,1002.65
2019-03-11T04:50:17.093Z,1002.53
2019-03-11T04:51:27.031Z,1002.54
2019-03-11T04:52:36.718Z,1002.75
2019-03-11T04:53:46.407Z,1002.57
2019-03-11T04:54:56.105Z,1002.58
2019-03-11T04:56:06.056Z,1002.61
2019-03-11T04:57:16.008Z,1002.71
2019-03-11T04:58:28.705Z,1002.53
2019-03-11T04:59:38.666Z,1002.62
2019-03-11T05:00:48.615Z,1002.55
2019-03-11T05:01:58.302Z,1002.59
2019-03-11T05:03:08.244Z,1002.7
2019-03-11T05:04:18.192Z,1002.63
2019-03-11T05:05:27.629Z,1002.69
2019-03-11T05:06:37.565Z,1002.51
2019-03-11T05:07:47.526Z,1002.83
2019-03-11T05:08:57.223Z,1002.62
2019-03-11T05:10:07.158Z,1002.69
2019-03-11T05:11:19.085Z,1002.65
2019-03-11T05:12:29.042Z,1002.63
2019-03-11T05:13:39.010Z,1002.78
2019-03-11T05:14:48.954Z,1002.67
2019-03-11T05:15:58.627Z,1002.76
2019-03-11T05:17:08.571Z,1002.71
2019-03-11T05:18:18.502Z,1002.68
2019-03-11T05:19:28.442Z,1002.68
2019-03-11T05:20:38.151Z,1002.63
2019-03-11T05:21:47.577Z,1002.71
2019-03-11T05:22:57.511Z,1002.59
2019-03-11T05:24:07.463Z,1002.67
2019-03-11T05:25:16.651Z,1002.73
2019-03-11T05:26:26.099Z,1002.65
2019-03-11T05:27:36.041Z,1002.68
2019-03-11T05:28:45.721Z,1002.66
2019-03-11T05:29:56.875Z,1002.71
2019-03-11T05:31:07.038Z,1002.7
2019-03-11T05:32:16.953Z,1002.73
2019-03-11T05:33:26.649Z,1002.63
2019-03-11T05:34:36.091Z,1002.74
2019-03-11T05:35:46.039Z,1002.76
2019-03-11T05:36:55.978Z,1002.67
2019-03-11T05:38:05.921Z,1002.66
2019-03-11T05:39:15.882Z,1002.73
2019-03-11T05:40:25.831Z,1002.6
2019-03-11T05:41:35.777Z,1002.58
2019-03-11T05:42:45.461Z,1002.61
2019-03-11T05:43:55.413Z,1002.56
2019-03-11T05:45:04.857Z,1002.59
2019-03-11T05:46:14.854Z,1002.55
2019-03-11T05:47:24.831Z,1002.85
2019-03-11T05:48:34.785Z,1002.55
2019-03-11T05:49:44.735Z,1002.67
2019-03-11T05:50:54.171Z,1002.67
2019-03-11T05:52:04.123Z,1002.66
2019-03-11T05:53:14.077Z,1002.62
2019-03-11T05:54:23.768Z,1002.75
2019-03-11T05:55:33.710Z,1002.64
2019-03-11T05:56:43.748Z,1002.6
2019-03-11T05:57:53.695Z,1002.68
2019-03-11T05:59:03.643Z,1002.72
2019-03-11T06:00:13.596Z,1002.78
2019-03-11T06:01:23.551Z,1002.71
2019-03-11T06:02:33.508Z,1002.64
2019-03-11T06:03:44.345Z,1002.76
2019-03-11T06:04:54.045Z,1002.68
2019-03-11T06:06:03.986Z,1002.74
2019-03-11T06:07:13.918Z,1002.88
2019-03-11T06:08:23.852Z,1002.73
2019-03-11T06:09:33.788Z,1002.69
2019-03-11T06:10:43.484Z,1002.71
2019-03-11T06:11:53.176Z,1002.75
2019-03-11T06:13:03.117Z,1002.71
2019-03-11T06:14:12.819Z,1002.75
2019-03-11T06:15:22.758Z,1002.79
2019-03-11T06:16:32.479Z,1002.96
2019-03-11T06:17:42.483Z,1002.83
2019-03-11T06:18:52.639Z,1002.73
2019-03-11T06:20:02.402Z,1002.87
2019-03-11T06:21:12.359Z,1002.88
2019-03-11T06:22:22.046Z,1002.81
2019-03-11T06:23:31.982Z,1002.89
2019-03-11T06:24:41.917Z,1002.85
2019-03-11T06:25:51.612Z,1002.82
2019-03-11T06:27:01.091Z,1002.82
2019-03-11T06:28:10.818Z,1002.88
2019-03-11T06:29:29.886Z,1002.81
2019-03-11T06:30:39.826Z,1002.76
2019-03-11T06:31:49.525Z,1002.8
2019-03-11T06:32:59.493Z,1002.79
2019-03-11T06:34:09.181Z,1002.76
2019-03-11T06:35:18.874Z,1002.85
2019-03-11T06:36:28.821Z,1002.84
2019-03-11T06:37:38.003Z,1002.86
2019-03-11T06:38:47.720Z,1002.9
2019-03-11T06:40:07.891Z,1002.84
2019-03-11T06:41:17.948Z,1002.84
2019-03-11T06:42:27.887Z,1002.94
2019-03-11T06:43:37.623Z,1002.89
2019-03-11T06:44:47.638Z,1002.78
2019-03-11T06:45:57.347Z,1002.77
2019-03-11T06:47:07.290Z,1002.76
2019-03-11T06:48:17.229Z,1002.71
2019-03-11T06:49:26.674Z,1002.84
2019-03-11T06:50:36.853Z,1002.9
2019-03-11T06:51:46.563Z,1002.69
2019-03-11T06:52:56.511Z,1002.74
2019-03-11T06:54:06.218Z,1002.72
2019-03-11T06:55:15.899Z,1002.77
2019-03-11T06:56:25.586Z,1002.8
2019-03-11T06:57:35.527Z,1002.98
2019-03-11T06:58:45.299Z,1002.76
2019-03-11T06:59:54.740Z,1002.78
2019-03-11T07:01:03.932Z,1002.83
2019-03-11T07:02:13.923Z,1002.76
2019-03-11T07:03:23.358Z,1002.86
2019-03-11T07:04:33.066Z,1002.68
2019-03-11T07:05:42.772Z,1002.75
2019-03-11T07:06:52.481Z,1002.66
2019-03-11T07:08:02.675Z,1002.7
2019-03-11T07:09:12.468Z,1002.78
2019-03-11T07:10:22.770Z,1002.77
2019-03-11T07:11:32.743Z,1002.7
2019-03-11T07:12:42.690Z,1002.71
2019-03-11T07:13:52.719Z,1002.74
2019-03-11T07:15:02.676Z,1002.66
2019-03-11T07:16:12.604Z,1002.69
2019-03-11T07:17:22.574Z,1002.77
2019-03-11T07:18:32.520Z,1002.7
2019-03-11T07:19:42.533Z,1002.68
2019-03-11T07:20:52.478Z,1002.74
2019-03-11T07:22:02.427Z,1002.74
2019-03-11T07:23:12.126Z,1002.78
2019-03-11T07:24:21.564Z,1002.73
2019-03-11T07:25:31.512Z,1002.83
2019-03-11T07:26:41.209Z,1002.79
2019-03-11T07:27:51.153Z,1002.83
2019-03-11T07:29:01.117Z,1002.79
2019-03-11T07:30:10.591Z,1003.02
2019-03-11T07:31:20.545Z,1002.89
2019-03-11T07:32:30.484Z,1002.8
2019-03-11T07:33:39.955Z,1002.87
2019-03-11T07:34:49.666Z,1002.89
2019-03-11T07:36:10.528Z,1002.9
2019-03-11T07:37:20.329Z,1002.89
2019-03-11T07:38:30.819Z,1002.9
2019-03-11T07:39:40.556Z,1002.99
2019-03-11T07:40:50.502Z,1002.84
2019-03-11T07:42:00.214Z,1002.89
2019-03-11T07:43:10.172Z,1002.92
2019-03-11T07:44:20.204Z,1003.21
2019-03-11T07:45:30.177Z,1002.99
2019-03-11T07:46:40.122Z,1003.01
2019-03-11T07:47:50.987Z,1003.01
2019-03-11T07:49:00.699Z,1002.92
2019-03-11T07:50:10.637Z,1002.98
2019-03-11T07:51:20.350Z,1003.01
2019-03-11T07:52:30.042Z,1003.03
2019-03-11T07:53:40.027Z,1002.98
2019-03-11T07:54:49.993Z,1003.03
2019-03-11T07:55:59.946Z,1003.03
2019-03-11T07:57:11.021Z,1002.99
2019-03-11T07:58:21.053Z,1003
2019-03-11T07:59:30.988Z,1003.01
2019-03-11T08:00:40.680Z,1003.06
2019-03-11T08:02:00.967Z,1002.96
2019-03-11T08:03:10.664Z,1003
2019-03-11T08:04:20.363Z,1003.03
2019-03-11T08:05:30.310Z,1003.06
2019-03-11T08:06:40.278Z,1003.05
2019-03-11T08:07:50.331Z,1003.02
2019-03-11T08:09:00.665Z,1002.95
2019-03-11T08:10:10.131Z,1003.06
2019-03-11T08:11:19.846Z,1003.13
2019-03-11T08:12:29.788Z,1003.04
2019-03-11T08:13:39.901Z,1003.08
2019-03-11T08:14:49.686Z,1003.09
2019-03-11T08:15:59.120Z,1003.12
2019-03-11T08:17:09.273Z,1003.05
2019-03-11T08:18:19.045Z,1003.08
2019-03-11T08:19:39.624Z,1003.21
2019-03-11T08:20:49.572Z,1003.06
2019-03-11T08:21:59.552Z,1003.08
2019-03-11T08:23:09.524Z,1003.06
2019-03-11T08:24:19.484Z,1003.06
2019-03-11T08:25:29.449Z,1003.03
2019-03-11T08:26:39.429Z,1003.1
2019-03-11T08:27:49.367Z,1003.17
2019-03-11T08:28:59.320Z,1003.16
2019-03-11T08:30:09.020Z,1003.16
2019-03-11T08:31:18.974Z,1003.22
2019-03-11T08:32:28.470Z,1003.13
2019-03-11T08:33:37.741Z,1003.2
2019-03-11T08:34:47.501Z,1003.18
2019-03-11T08:35:57.196Z,1003.22
2019-03-11T08:37:06.720Z,1003.19
2019-03-11T08:38:16.893Z,1003.15
2019-03-11T08:39:26.590Z,1003.22
2019-03-11T08:40:36.561Z,1003.21
2019-03-11T08:41:48.306Z,1003.18
2019-03-11T08:42:58.256Z,1003.21
2019-03-11T08:44:08.266Z,1003.23
2019-03-11T08:45:18.217Z,1003.37
2019-03-11T08:46:27.926Z,1003.3
2019-03-11T08:47:37.630Z,1003.37
2019-03-11T08:48:47.578Z,1003.29
2019-03-11T08:49:57.282Z,1003.28
2019-03-11T08:51:07.336Z,1003.29
2019-03-11T08:52:17.285Z,1003.4
2019-03-11T08:53:27.266Z,1003.37
2019-03-11T08:54:37.221Z,1003.34
2019-03-11T08:55:47.216Z,1003.42
2019-03-11T08:56:57.182Z,1003.29
2019-03-11T08:58:06.663Z,1003.3
2019-03-11T08:59:16.686Z,1003.29
2019-03-11T09:00:26.704Z,1003.31
2019-03-11T09:01:36.915Z,1003.24
2019-03-11T09:02:46.870Z,1003.3
2019-03-11T09:03:57.088Z,1003.26
2019-03-11T09:05:07.089Z,1003.29
2019-03-11T09:06:17.095Z,1003.33
2019-03-11T09:07:27.074Z,1003.32
2019-03-11T09:08:37.045Z,1003.27
2019-03-11T09:09:46.765Z,1003.29
2019-03-11T09:10:56.520Z,1003.33
2019-03-11T09:12:05.985Z,1003.26
2019-03-11T09:13:15.934Z,1003.31
2019-03-11T09:14:25.886Z,1003.35
2019-03-11T09:15:35.665Z,1003.27
2019-03-11T09:16:45.654Z,1003.32
2019-03-11T09:17:55.371Z,1003.36
2019-03-11T09:19:05.392Z,1003.39
2019-03-11T09:20:15.345Z,1003.33
2019-03-11T09:21:25.076Z,1003.43
2019-03-11T09:22:34.769Z,1003.45
2019-03-11T09:23:44.715Z,1003.43
2019-03-11T09:24:54.664Z,1003.4
2019-03-11T09:26:04.631Z,1003.54
2019-03-11T09:27:14.590Z,1003.45
2019-03-11T09:28:24.345Z,1003.44
2019-03-11T09:29:35.154Z,1003.53
2019-03-11T09:30:45.399Z,1003.45
2019-03-11T09:31:55.437Z,1003.52
2019-03-11T09:33:05.398Z,1003.46
2019-03-11T09:34:16.233Z,1003.59
2019-03-11T09:35:26.179Z,1003.64
2019-03-11T09:36:36.136Z,1003.4
2019-03-11T09:37:46.144Z,1003.51
2019-03-11T09:38:56.140Z,1003.47
2019-03-11T09:40:05.594Z,1003.49
2019-03-11T09:41:15.297Z,1003.43
2019-03-11T09:42:25.241Z,1003.45
2019-03-11T09:43:35.193Z,1003.45
2019-03-11T09:44:45.254Z,1003.44
2019-03-11T09:45:54.970Z,1003.42
2019-03-11T09:47:04.695Z,1003.49
2019-03-11T09:48:14.163Z,1003.45
2019-03-11T09:49:24.143Z,1003.54
2019-03-11T09:50:34.101Z,1003.39
2019-03-11T09:51:43.578Z,1003.51
2019-03-11T09:52:53.835Z,1003.47
2019-03-11T09:54:03.804Z,1003.41
2019-03-11T09:55:13.780Z,1003.38
2019-03-11T09:56:23.514Z,1003.58
2019-03-11T09:57:43.603Z,1003.48
2019-03-11T09:58:53.594Z,1003.5
2019-03-11T10:00:03.570Z,1003.37
2019-03-11T10:01:14.294Z,1003.51
2019-03-11T10:02:24.801Z,1003.45
2019-03-11T10:03:34.526Z,1003.62
2019-03-11T10:04:44.228Z,1003.46
2019-03-11T10:05:53.931Z,1003.43
2019-03-11T10:07:03.641Z,1003.51
2019-03-11T10:08:13.612Z,1003.47
2019-03-11T10:09:23.351Z,1003.38
2019-03-11T10:10:33.330Z,1003.64
2019-03-11T10:11:43.278Z,1003.38
2019-03-11T10:12:53.271Z,1003.41
2019-03-11T10:14:03.235Z,1003.36
2019-03-11T10:15:13.237Z,1003.41
2019-03-11T10:16:22.931Z,1003.36
2019-03-11T10:17:32.720Z,1003.53
2019-03-11T10:18:42.413Z,1003.43
2019-03-11T10:19:53.304Z,1003.35
2019-03-11T10:21:03.365Z,1003.38
2019-03-11T10:22:14.012Z,1003.37
2019-03-11T10:23:31.684Z,1003.39
2019-03-11T10:24:41.722Z,1003.46
2019-03-11T10:25:51.708Z,1003.43
2019-03-11T10:27:01.446Z,1003.33
2019-03-11T10:28:11.178Z,1003.33
2019-03-11T10:29:21.133Z,1003.41
2019-03-11T10:30:31.112Z,1003.36
2019-03-11T10:31:41.157Z,1003.34
2019-03-11T10:32:51.403Z,1003.39
2019-03-11T10:34:01.104Z,1003.43
2019-03-11T10:35:30.032Z,1003.4
2019-03-11T10:36:40.863Z,1003.47
2019-03-11T10:37:50.673Z,1003.38
2019-03-11T10:39:00.407Z,1003.38
2019-03-11T10:40:10.502Z,1003.51
2019-03-11T10:41:20.657Z,1003.63
2019-03-11T10:42:30.353Z,1003.55
2019-03-11T10:43:40.065Z,1003.52
2019-03-11T10:44:50.062Z,1003.5
2019-03-11T10:46:00.011Z,1003.48
2019-03-11T10:47:10.210Z,1003.51
2019-03-11T10:48:19.650Z,1003.49
2019-03-11T10:49:39.897Z,1003.49
2019-03-11T10:50:49.686Z,1003.49
2019-03-11T10:51:59.867Z,1003.48
2019-03-11T10:53:13.592Z,1003.42
2019-03-11T10:54:23.317Z,1003.38
2019-03-11T10:55:33.313Z,1003.38
2019-03-11T10:56:42.764Z,1003.45
2019-03-11T10:57:52.720Z,1003.38
2019-03-11T10:59:02.458Z,1003.52
2019-03-11T11:00:12.427Z,1003.66
2019-03-11T11:01:22.470Z,1003.36
2019-03-11T11:02:32.434Z,1003.4
2019-03-11T11:03:42.194Z,1003.47
2019-03-11T11:04:51.901Z,1003.37
2019-03-11T11:06:01.867Z,1003.35
2019-03-11T11:07:11.352Z,1003.45
2019-03-11T11:08:21.313Z,1003.37
2019-03-11T11:09:31.287Z,1003.37
2019-03-11T11:10:41.020Z,1003.3
2019-03-11T11:11:50.997Z,1003.39
2019-03-11T11:13:00.985Z,1003.41
2019-03-11T11:14:10.754Z,1003.47
2019-03-11T11:15:20.708Z,1003.34
2019-03-11T11:16:30.422Z,1003.44
2019-03-11T11:17:40.114Z,1003.34
2019-03-11T11:18:49.833Z,1003.43
2019-03-11T11:20:03.394Z,1003.37
2019-03-11T11:21:13.590Z,1003.33
2019-03-11T11:22:23.046Z,1003.41
2019-03-11T11:23:32.785Z,1003.36
2019-03-11T11:24:42.510Z,1003.44
2019-03-11T11:25:52.225Z,1003.38
2019-03-11T11:27:02.192Z,1003.4
2019-03-11T11:28:11.958Z,1003.44
2019-03-11T11:29:21.662Z,1003.5
2019-03-11T11:30:31.374Z,1003.5
2019-03-11T11:31:41.099Z,1003.53
2019-03-11T11:32:50.808Z,1003.62
2019-03-11T11:34:00.787Z,1003.44
2019-03-11T11:35:10.501Z,1003.58
2019-03-11T11:36:20.263Z,1003.5
2019-03-11T11:37:29.960Z,1003.51
2019-03-11T11:38:39.929Z,1003.53
2019-03-11T11:39:49.665Z,1003.48
2019-03-11T11:40:59.385Z,1003.59
2019-03-11T11:42:08.830Z,1003.65
2019-03-11T11:43:18.776Z,1003.59
2019-03-11T11:44:28.510Z,1003.63
2019-03-11T11:45:38.461Z,1003.67
2019-03-11T11:46:48.415Z,1003.69
2019-03-11T11:47:58.357Z,1003.68
2019-03-11T11:49:11.182Z,1003.69
2019-03-11T11:50:20.650Z,1003.81
2019-03-11T11:51:30.657Z,1003.8
2019-03-11T11:52:40.429Z,1003.75
2019-03-11T11:53:50.458Z,1004.06
2019-03-11T11:55:00.655Z,1003.78
2019-03-11T11:56:10.361Z,1003.79
2019-03-11T11:57:20.313Z,1003.8
2019-03-11T11:58:30.072Z,1003.81
2019-03-11T11:59:41.404Z,1003.8
2019-03-11T12:01:01.108Z,1003.86
2019-03-11T12:02:11.079Z,1003.81
2019-03-11T12:03:20.523Z,1003.87
2019-03-11T12:04:30.511Z,1003.79
2019-03-11T12:05:40.483Z,1003.96
2019-03-11T12:06:50.484Z,1003.89
2019-03-11T12:08:00.462Z,1003.96
2019-03-11T12:09:10.417Z,1003.95
2019-03-11T12:10:20.366Z,1003.91
2019-03-11T12:11:30.411Z,1003.82
2019-03-11T12:12:40.382Z,1003.89
2019-03-11T12:13:50.356Z,1003.83
2019-03-11T12:14:59.806Z,1003.89
2019-03-11T12:16:09.298Z,1003.87
2019-03-11T12:17:19.009Z,1003.87
2019-03-11T12:18:30.868Z,1003.92
2019-03-11T12:19:40.882Z,1004.01
2019-03-11T12:20:50.579Z,1004
2019-03-11T12:22:00.531Z,1004.01
2019-03-11T12:23:10.543Z,1004.03
2019-03-11T12:24:20.257Z,1003.98
2019-03-11T12:25:30.246Z,1003.95
2019-03-11T12:26:39.959Z,1003.92
2019-03-11T12:27:53.922Z,1003.99
2019-03-11T12:29:05.965Z,1003.9
2019-03-11T12:30:15.694Z,1003.98
2019-03-11T12:31:25.703Z,1003.98
2019-03-11T12:32:35.714Z,1003.89
2019-03-11T12:33:45.153Z,1003.9
2019-03-11T12:34:54.854Z,1004.02
2019-03-11T12:36:04.848Z,1003.97
2019-03-11T12:37:14.916Z,1004.01
2019-03-11T12:38:24.412Z,1004
2019-03-11T12:39:36.256Z,1004.1
2019-03-11T12:40:46.225Z,1004.01
2019-03-11T12:41:56.184Z,1003.94
2019-03-11T12:43:05.899Z,1003.97
2019-03-11T12:44:15.849Z,1003.99
2019-03-11T12:45:25.810Z,1004.02
2019-03-11T12:46:35.323Z,1004.06
2019-03-11T12:47:45.378Z,1003.98
2019-03-11T12:48:55.103Z,1004
2019-03-11T12:50:05.055Z,1004.09
2019-03-11T12:51:17.543Z,1004.04
2019-03-11T12:52:27.491Z,1003.94
2019-03-11T12:53:37.445Z,1004.04
2019-03-11T12:54:47.149Z,1004.02
2019-03-11T12:55:57.109Z,1004.14
2019-03-11T12:57:06.845Z,1004
2019-03-11T12:58:16.820Z,1004.01
2019-03-11T12:59:26.638Z,1003.96
2019-03-11T13:00:43.384Z,1003.97
2019-03-11T13:01:53.153Z,1003.97
2019-03-11T13:03:03.172Z,1003.9
2019-03-11T13:04:13.124Z,1003.89
2019-03-11T13:05:23.090Z,1003.91
2019-03-11T13:06:33.080Z,1003.87
2019-03-11T13:07:42.556Z,1004.04
2019-03-11T13:08:52.507Z,1003.92
2019-03-11T13:10:02.461Z,1003.9
2019-03-11T13:11:11.924Z,1003.99
2019-03-11T13:12:21.897Z,1003.91
2019-03-11T13:13:31.644Z,1003.91
2019-03-11T13:14:41.380Z,1004.01
2019-03-11T13:15:51.427Z,1004
2019-03-11T13:17:01.180Z,1003.97
2019-03-11T13:18:11.179Z,1004.03
2019-03-11T13:19:21.128Z,1004
2019-03-11T13:20:30.822Z,1003.99
2019-03-11T13:21:40.777Z,1004.14
2019-03-11T13:22:50.519Z,1004.01
2019-03-11T13:23:59.734Z,1004.05
2019-03-11T13:25:09.462Z,1004.01
2019-03-11T13:26:19.424Z,1004.05
2019-03-11T13:27:29.122Z,1004.14
2019-03-11T13:28:38.843Z,1004.04
2019-03-11T13:29:48.537Z,1004.07
2019-03-11T13:30:57.976Z,1004.14
2019-03-11T13:32:08.189Z,1004.46
2019-03-11T13:33:17.924Z,1004.18
2019-03-11T13:34:27.672Z,1004.12
2019-03-11T13:35:37.642Z,1004.1
2019-03-11T13:36:47.344Z,1004.09
2019-03-11T13:37:57.314Z,1004.13
2019-03-11T13:39:06.756Z,1004.34
2019-03-11T13:40:16.685Z,1004.16
2019-03-11T13:41:26.669Z,1004.14
2019-03-11T13:42:36.638Z,1004.2
2019-03-11T13:43:48.486Z,1004.11
2019-03-11T13:44:58.448Z,1004.03
2019-03-11T13:46:08.167Z,1004.11
2019-03-11T13:47:18.106Z,1004.18
2019-03-11T13:48:27.792Z,1004.15
2019-03-11T13:49:37.218Z,1004.3
2019-03-11T13:50:46.912Z,1004.22
2019-03-11T13:51:56.883Z,1004.31
2019-03-11T13:53:06.834Z,1004.36
2019-03-11T13:54:16.799Z,1004.53
2019-03-11T13:55:26.782Z,1004.37
2019-03-11T13:56:36.749Z,1004.45
2019-03-11T13:57:46.444Z,1004.53
2019-03-11T13:58:56.143Z,1004.41
2019-03-11T14:00:06.117Z,1004.48
2019-03-11T14:01:16.052Z,1004.48
2019-03-11T14:02:26.692Z,1004.4
2019-03-11T14:03:36.641Z,1004.47
2019-03-11T14:04:46.709Z,1004.57
2019-03-11T14:05:56.695Z,1004.47
2019-03-11T14:07:06.380Z,1004.56
2019-03-11T14:08:16.090Z,1004.25
2019-03-11T14:09:25.775Z,1004.64
2019-03-11T14:10:35.740Z,1004.53
2019-03-11T14:11:45.693Z,1004.48